sensor_id;sensor_type;location;lat;lon;timestamp;P1;durP1;ratioP1;P2;durP2;ratioP2
60999;SDS011;46879;45.658;11.814;2023-04-24T00:03:12;8.02;;;4.22;;
60999;SDS011;46879;45.658;11.814;2023-04-24T00:08:13;5.85;;;3.90;;
60999;SDS011;46879;45.658;11.814;2023-04-24T00:13:13;5.55;;;4.10;;
60999;SDS011;46879;45.658;11.814;2023-04-24T00:18:14;4.35;;;3.95;;
60999;SDS011;46879;45.658;11.814;2023-04-24T00:23:14;5.93;;;4.10;;
60999;SDS011;46879;45.658;11.814;2023-04-24T00:28:15;6.05;;;4.53;;
60999;SDS011;46879;45.658;11.814;2023-04-24T00:33:15;4.97;;;3.97;;
60999;SDS011;46879;45.658;11.814;2023-04-24T00:38:16;5.95;;;4.38;;
60999;SDS011;46879;45.658;11.814;2023-04-24T00:43:17;6.45;;;4.00;;
60999;SDS011;46879;45.658;11.814;2023-04-24T00:48:17;4.72;;;3.90;;
60999;SDS011;46879;45.658;11.814;2023-04-24T00:53:18;7.63;;;3.80;;
60999;SDS011;46879;45.658;11.814;2023-04-24T00:58:19;6.65;;;3.83;;
60999;SDS011;46879;45.658;11.814;2023-04-24T01:03:20;4.95;;;3.83;;
60999;SDS011;46879;45.658;11.814;2023-04-24T01:08:23;4.93;;;4.00;;
60999;SDS011;46879;45.658;11.814;2023-04-24T01:13:25;5.40;;;3.63;;
60999;SDS011;46879;45.658;11.814;2023-04-24T01:18:26;6.45;;;4.00;;
60999;SDS011;46879;45.658;11.814;2023-04-24T01:23:27;4.43;;;3.92;;
60999;SDS011;46879;45.658;11.814;2023-04-24T01:28:28;4.55;;;3.80;;
60999;SDS011;46879;45.658;11.814;2023-04-24T01:33:29;5.25;;;3.95;;
60999;SDS011;46879;45.658;11.814;2023-04-24T01:38:29;5.45;;;3.92;;
60999;SDS011;46879;45.658;11.814;2023-04-24T01:43:30;6.82;;;3.47;;
60999;SDS011;46879;45.658;11.814;2023-04-24T01:48:32;4.05;;;3.55;;
60999;SDS011;46879;45.658;11.814;2023-04-24T01:53:33;5.93;;;3.90;;
60999;SDS011;46879;45.658;11.814;2023-04-24T01:58:34;4.35;;;3.92;;
60999;SDS011;46879;45.658;11.814;2023-04-24T02:03:35;4.65;;;3.45;;
60999;SDS011;46879;45.658;11.814;2023-04-24T02:13:57;4.88;;;3.70;;
60999;SDS011;46879;45.658;11.814;2023-04-24T02:18:57;4.57;;;3.80;;
60999;SDS011;46879;45.658;11.814;2023-04-24T02:23:58;4.88;;;3.75;;
60999;SDS011;46879;45.658;11.814;2023-04-24T02:28:59;3.70;;;3.40;;
60999;SDS011;46879;45.658;11.814;2023-04-24T02:34:00;4.55;;;4.10;;
60999;SDS011;46879;45.658;11.814;2023-04-24T02:39:00;4.78;;;3.78;;
60999;SDS011;46879;45.658;11.814;2023-04-24T02:44:01;4.15;;;3.35;;
60999;SDS011;46879;45.658;11.814;2023-04-24T02:49:02;3.60;;;3.30;;
60999;SDS011;46879;45.658;11.814;2023-04-24T02:54:02;4.57;;;3.47;;
60999;SDS011;46879;45.658;11.814;2023-04-24T02:59:03;3.63;;;3.33;;
60999;SDS011;46879;45.658;11.814;2023-04-24T03:04:03;5.72;;;3.90;;
60999;SDS011;46879;45.658;11.814;2023-04-24T03:09:04;4.68;;;3.45;;
60999;SDS011;46879;45.658;11.814;2023-04-24T03:14:05;7.15;;;3.53;;
60999;SDS011;46879;45.658;11.814;2023-04-24T03:19:05;3.50;;;3.20;;
60999;SDS011;46879;45.658;11.814;2023-04-24T03:24:09;3.72;;;3.40;;
60999;SDS011;46879;45.658;11.814;2023-04-24T03:29:09;12.68;;;3.40;;
60999;SDS011;46879;45.658;11.814;2023-04-24T03:34:10;4.38;;;3.20;;
60999;SDS011;46879;45.658;11.814;2023-04-24T03:39:10;3.78;;;3.17;;
60999;SDS011;46879;45.658;11.814;2023-04-24T03:44:11;4.45;;;3.70;;
60999;SDS011;46879;45.658;11.814;2023-04-24T03:49:11;5.45;;;3.00;;
60999;SDS011;46879;45.658;11.814;2023-04-24T03:54:12;4.45;;;3.08;;
60999;SDS011;46879;45.658;11.814;2023-04-24T03:59:13;4.90;;;3.15;;
60999;SDS011;46879;45.658;11.814;2023-04-24T04:04:14;4.15;;;2.97;;
60999;SDS011;46879;45.658;11.814;2023-04-24T04:09:15;3.53;;;3.17;;
60999;SDS011;46879;45.658;11.814;2023-04-24T04:14:15;5.88;;;2.88;;
60999;SDS011;46879;45.658;11.814;2023-04-24T04:19:16;3.30;;;3.00;;
60999;SDS011;46879;45.658;11.814;2023-04-24T04:24:16;3.78;;;3.40;;
60999;SDS011;46879;45.658;11.814;2023-04-24T04:29:17;3.58;;;3.28;;
60999;SDS011;46879;45.658;11.814;2023-04-24T04:34:18;3.10;;;2.90;;
60999;SDS011;46879;45.658;11.814;2023-04-24T04:39:19;4.50;;;3.05;;
60999;SDS011;46879;45.658;11.814;2023-04-24T04:44:20;4.65;;;2.90;;
60999;SDS011;46879;45.658;11.814;2023-04-24T04:49:20;3.42;;;3.13;;
60999;SDS011;46879;45.658;11.814;2023-04-24T04:54:21;6.15;;;2.92;;
60999;SDS011;46879;45.658;11.814;2023-04-24T04:59:22;3.42;;;3.13;;
60999;SDS011;46879;45.658;11.814;2023-04-24T05:04:22;3.35;;;3.05;;
60999;SDS011;46879;45.658;11.814;2023-04-24T05:09:23;3.15;;;2.75;;
60999;SDS011;46879;45.658;11.814;2023-04-24T05:14:27;4.28;;;2.80;;
60999;SDS011;46879;45.658;11.814;2023-04-24T05:19:27;4.43;;;3.00;;
60999;SDS011;46879;45.658;11.814;2023-04-24T05:24:28;3.20;;;2.88;;
60999;SDS011;46879;45.658;11.814;2023-04-24T05:29:28;3.35;;;2.75;;
60999;SDS011;46879;45.658;11.814;2023-04-24T05:34:30;3.38;;;3.08;;
60999;SDS011;46879;45.658;11.814;2023-04-24T05:39:31;3.58;;;3.28;;
60999;SDS011;46879;45.658;11.814;2023-04-24T05:44:32;6.30;;;3.55;;
60999;SDS011;46879;45.658;11.814;2023-04-24T05:49:32;4.15;;;3.63;;
60999;SDS011;46879;45.658;11.814;2023-04-24T05:54:33;9.73;;;3.38;;
60999;SDS011;46879;45.658;11.814;2023-04-24T05:59:35;11.68;;;3.65;;
60999;SDS011;46879;45.658;11.814;2023-04-24T06:04:37;4.43;;;3.40;;
60999;SDS011;46879;45.658;11.814;2023-04-24T06:09:38;8.68;;;3.22;;
60999;SDS011;46879;45.658;11.814;2023-04-24T06:14:38;10.98;;;3.50;;
60999;SDS011;46879;45.658;11.814;2023-04-24T06:19:39;7.30;;;3.85;;
60999;SDS011;46879;45.658;11.814;2023-04-24T06:24:40;6.07;;;3.35;;
60999;SDS011;46879;45.658;11.814;2023-04-24T06:29:41;8.85;;;3.47;;
60999;SDS011;46879;45.658;11.814;2023-04-24T06:34:41;14.00;;;3.70;;
60999;SDS011;46879;45.658;11.814;2023-04-24T06:39:42;8.60;;;3.92;;
60999;SDS011;46879;45.658;11.814;2023-04-24T06:44:42;11.55;;;4.40;;
60999;SDS011;46879;45.658;11.814;2023-04-24T06:49:44;8.15;;;4.00;;
60999;SDS011;46879;45.658;11.814;2023-04-24T06:54:44;7.47;;;4.25;;
60999;SDS011;46879;45.658;11.814;2023-04-24T06:59:45;10.77;;;3.70;;
60999;SDS011;46879;45.658;11.814;2023-04-24T07:04:46;10.52;;;3.95;;
60999;SDS011;46879;45.658;11.814;2023-04-24T07:09:47;10.23;;;4.03;;
60999;SDS011;46879;45.658;11.814;2023-04-24T07:14:48;15.93;;;4.10;;
60999;SDS011;46879;45.658;11.814;2023-04-24T07:19:50;11.18;;;4.43;;
60999;SDS011;46879;45.658;11.814;2023-04-24T07:24:51;15.77;;;3.88;;
60999;SDS011;46879;45.658;11.814;2023-04-24T07:29:51;10.90;;;4.10;;
60999;SDS011;46879;45.658;11.814;2023-04-24T07:34:52;10.27;;;3.70;;
60999;SDS011;46879;45.658;11.814;2023-04-24T07:39:52;31.45;;;4.32;;
60999;SDS011;46879;45.658;11.814;2023-04-24T07:44:53;13.23;;;4.05;;
60999;SDS011;46879;45.658;11.814;2023-04-24T07:49:54;18.65;;;4.25;;
60999;SDS011;46879;45.658;11.814;2023-04-24T07:54:55;16.02;;;4.40;;
60999;SDS011;46879;45.658;11.814;2023-04-24T07:59:58;24.80;;;5.20;;
60999;SDS011;46879;45.658;11.814;2023-04-24T08:04:58;15.27;;;4.28;;
60999;SDS011;46879;45.658;11.814;2023-04-24T08:09:59;12.50;;;4.57;;
60999;SDS011;46879;45.658;11.814;2023-04-24T08:15:00;15.52;;;4.45;;
60999;SDS011;46879;45.658;11.814;2023-04-24T08:20:01;16.30;;;4.28;;
60999;SDS011;46879;45.658;11.814;2023-04-24T08:25:04;10.98;;;3.95;;
60999;SDS011;46879;45.658;11.814;2023-04-24T08:30:05;11.05;;;4.10;;
60999;SDS011;46879;45.658;11.814;2023-04-24T08:35:10;7.95;;;3.85;;
60999;SDS011;46879;45.658;11.814;2023-04-24T08:40:14;6.15;;;3.70;;
60999;SDS011;46879;45.658;11.814;2023-04-24T08:45:16;5.15;;;3.10;;
60999;SDS011;46879;45.658;11.814;2023-04-24T08:50:17;7.95;;;3.20;;
60999;SDS011;46879;45.658;11.814;2023-04-24T08:55:17;11.07;;;4.10;;
60999;SDS011;46879;45.658;11.814;2023-04-24T09:00:20;15.20;;;4.25;;
60999;SDS011;46879;45.658;11.814;2023-04-24T09:05:22;7.78;;;3.08;;
60999;SDS011;46879;45.658;11.814;2023-04-24T09:10:26;5.10;;;3.38;;
60999;SDS011;46879;45.658;11.814;2023-04-24T09:15:27;7.20;;;3.28;;
60999;SDS011;46879;45.658;11.814;2023-04-24T09:20:28;12.88;;;3.88;;
60999;SDS011;46879;45.658;11.814;2023-04-24T09:25:32;7.30;;;3.38;;
60999;SDS011;46879;45.658;11.814;2023-04-24T09:30:35;10.05;;;3.17;;
60999;SDS011;46879;45.658;11.814;2023-04-24T09:35:36;8.55;;;3.70;;
60999;SDS011;46879;45.658;11.814;2023-04-24T09:40:40;5.47;;;2.78;;
60999;SDS011;46879;45.658;11.814;2023-04-24T09:45:41;8.13;;;3.63;;
60999;SDS011;46879;45.658;11.814;2023-04-24T09:50:45;14.57;;;3.42;;
60999;SDS011;46879;45.658;11.814;2023-04-24T09:55:47;17.73;;;4.28;;
60999;SDS011;46879;45.658;11.814;2023-04-24T10:00:48;18.75;;;3.10;;
60999;SDS011;46879;45.658;11.814;2023-04-24T10:05:49;18.70;;;3.60;;
60999;SDS011;46879;45.658;11.814;2023-04-24T10:10:52;8.93;;;3.08;;
60999;SDS011;46879;45.658;11.814;2023-04-24T10:15:53;9.77;;;2.88;;
60999;SDS011;46879;45.658;11.814;2023-04-24T10:20:54;13.63;;;3.10;;
60999;SDS011;46879;45.658;11.814;2023-04-24T10:25:55;13.98;;;3.20;;
60999;SDS011;46879;45.658;11.814;2023-04-24T10:30:56;13.73;;;3.25;;
60999;SDS011;46879;45.658;11.814;2023-04-24T10:35:58;13.73;;;3.38;;
60999;SDS011;46879;45.658;11.814;2023-04-24T10:41:11;5.07;;;2.90;;
60999;SDS011;46879;45.658;11.814;2023-04-24T10:46:19;15.23;;;2.78;;
60999;SDS011;46879;45.658;11.814;2023-04-24T10:51:22;4.65;;;2.55;;
60999;SDS011;46879;45.658;11.814;2023-04-24T10:56:24;6.82;;;2.40;;
60999;SDS011;46879;45.658;11.814;2023-04-24T11:01:25;8.25;;;2.88;;
60999;SDS011;46879;45.658;11.814;2023-04-24T11:06:34;4.65;;;2.78;;
60999;SDS011;46879;45.658;11.814;2023-04-24T11:11:37;6.53;;;2.80;;
60999;SDS011;46879;45.658;11.814;2023-04-24T11:16:45;17.98;;;2.60;;
60999;SDS011;46879;45.658;11.814;2023-04-24T11:21:56;8.88;;;2.42;;
60999;SDS011;46879;45.658;11.814;2023-04-24T11:37:28;10.77;;;1.92;;
60999;SDS011;46879;45.658;11.814;2023-04-24T11:42:40;13.32;;;2.60;;
60999;SDS011;46879;45.658;11.814;2023-04-24T11:47:46;5.25;;;1.90;;
60999;SDS011;46879;45.658;11.814;2023-04-24T11:52:47;4.55;;;1.63;;
60999;SDS011;46879;45.658;11.814;2023-04-24T11:57:50;1.70;;;1.55;;
60999;SDS011;46879;45.658;11.814;2023-04-24T12:03:04;2.03;;;1.50;;
60999;SDS011;46879;45.658;11.814;2023-04-24T12:08:11;3.53;;;1.60;;
60999;SDS011;46879;45.658;11.814;2023-04-24T12:13:11;2.05;;;1.60;;
60999;SDS011;46879;45.658;11.814;2023-04-24T12:18:13;1.88;;;1.70;;
60999;SDS011;46879;45.658;11.814;2023-04-24T12:23:16;1.85;;;1.38;;
60999;SDS011;46879;45.658;11.814;2023-04-24T12:33:37;3.08;;;1.70;;
60999;SDS011;46879;45.658;11.814;2023-04-24T12:38:38;3.35;;;1.83;;
60999;SDS011;46879;45.658;11.814;2023-04-24T12:43:51;4.20;;;1.80;;
60999;SDS011;46879;45.658;11.814;2023-04-24T12:48:53;9.38;;;2.03;;
60999;SDS011;46879;45.658;11.814;2023-04-24T12:53:53;13.95;;;2.47;;
60999;SDS011;46879;45.658;11.814;2023-04-24T12:58:54;11.63;;;2.05;;
60999;SDS011;46879;45.658;11.814;2023-04-24T13:03:55;8.05;;;2.15;;
60999;SDS011;46879;45.658;11.814;2023-04-24T13:08:55;32.42;;;3.15;;
60999;SDS011;46879;45.658;11.814;2023-04-24T13:13:57;5.88;;;2.55;;
60999;SDS011;46879;45.658;11.814;2023-04-24T13:18:58;5.30;;;2.03;;
60999;SDS011;46879;45.658;11.814;2023-04-24T13:23:58;12.48;;;2.42;;
60999;SDS011;46879;45.658;11.814;2023-04-24T13:28:59;16.00;;;2.20;;
60999;SDS011;46879;45.658;11.814;2023-04-24T13:34:00;8.77;;;2.22;;
60999;SDS011;46879;45.658;11.814;2023-04-24T13:39:02;11.82;;;2.58;;
60999;SDS011;46879;45.658;11.814;2023-04-24T13:44:06;3.15;;;2.47;;
60999;SDS011;46879;45.658;11.814;2023-04-24T13:49:06;5.57;;;2.50;;
60999;SDS011;46879;45.658;11.814;2023-04-24T13:54:08;5.65;;;2.47;;
60999;SDS011;46879;45.658;11.814;2023-04-24T13:59:08;4.55;;;2.40;;
60999;SDS011;46879;45.658;11.814;2023-04-24T14:04:09;4.70;;;2.40;;
60999;SDS011;46879;45.658;11.814;2023-04-24T14:09:10;2.70;;;1.88;;
60999;SDS011;46879;45.658;11.814;2023-04-24T14:14:10;3.22;;;2.20;;
60999;SDS011;46879;45.658;11.814;2023-04-24T14:19:11;3.67;;;2.08;;
60999;SDS011;46879;45.658;11.814;2023-04-24T14:24:12;4.25;;;1.80;;
60999;SDS011;46879;45.658;11.814;2023-04-24T14:29:12;4.03;;;1.90;;
60999;SDS011;46879;45.658;11.814;2023-04-24T14:34:13;2.47;;;2.10;;
60999;SDS011;46879;45.658;11.814;2023-04-24T14:39:14;3.08;;;1.90;;
60999;SDS011;46879;45.658;11.814;2023-04-24T14:44:14;4.93;;;2.00;;
60999;SDS011;46879;45.658;11.814;2023-04-24T14:49:15;4.22;;;2.30;;
60999;SDS011;46879;45.658;11.814;2023-04-24T14:54:16;1.80;;;1.67;;
60999;SDS011;46879;45.658;11.814;2023-04-24T14:59:16;4.88;;;2.10;;
60999;SDS011;46879;45.658;11.814;2023-04-24T15:04:17;1.88;;;1.70;;
60999;SDS011;46879;45.658;11.814;2023-04-24T15:09:17;7.68;;;2.10;;
60999;SDS011;46879;45.658;11.814;2023-04-24T15:14:18;2.25;;;1.90;;
60999;SDS011;46879;45.658;11.814;2023-04-24T15:19:19;2.03;;;1.83;;
60999;SDS011;46879;45.658;11.814;2023-04-24T15:24:20;3.10;;;2.10;;
60999;SDS011;46879;45.658;11.814;2023-04-24T15:29:21;2.22;;;1.80;;
60999;SDS011;46879;45.658;11.814;2023-04-24T15:34:21;2.40;;;1.75;;
60999;SDS011;46879;45.658;11.814;2023-04-24T15:39:22;1.88;;;1.50;;
60999;SDS011;46879;45.658;11.814;2023-04-24T15:44:24;3.25;;;1.75;;
60999;SDS011;46879;45.658;11.814;2023-04-24T15:49:25;2.63;;;1.85;;
60999;SDS011;46879;45.658;11.814;2023-04-24T15:54:25;1.88;;;1.70;;
60999;SDS011;46879;45.658;11.814;2023-04-24T15:59:26;2.80;;;1.80;;
60999;SDS011;46879;45.658;11.814;2023-04-24T16:04:29;2.78;;;1.48;;
60999;SDS011;46879;45.658;11.814;2023-04-24T16:09:29;1.40;;;1.30;;
60999;SDS011;46879;45.658;11.814;2023-04-24T16:14:30;1.42;;;1.30;;
60999;SDS011;46879;45.658;11.814;2023-04-24T16:19:31;1.38;;;1.10;;
60999;SDS011;46879;45.658;11.814;2023-04-24T16:24:33;7.22;;;1.75;;
60999;SDS011;46879;45.658;11.814;2023-04-24T16:29:34;7.22;;;1.80;;
60999;SDS011;46879;45.658;11.814;2023-04-24T16:34:35;1.92;;;1.63;;
60999;SDS011;46879;45.658;11.814;2023-04-24T16:39:35;3.70;;;1.73;;
60999;SDS011;46879;45.658;11.814;2023-04-24T16:44:38;6.57;;;1.85;;
60999;SDS011;46879;45.658;11.814;2023-04-24T16:49:42;1.95;;;1.70;;
60999;SDS011;46879;45.658;11.814;2023-04-24T16:54:43;3.05;;;1.50;;
60999;SDS011;46879;45.658;11.814;2023-04-24T16:59:43;1.90;;;1.70;;
60999;SDS011;46879;45.658;11.814;2023-04-24T17:04:44;3.33;;;1.92;;
60999;SDS011;46879;45.658;11.814;2023-04-24T17:09:45;1.98;;;1.85;;
60999;SDS011;46879;45.658;11.814;2023-04-24T17:14:46;2.85;;;1.90;;
60999;SDS011;46879;45.658;11.814;2023-04-24T17:19:46;8.02;;;2.15;;
60999;SDS011;46879;45.658;11.814;2023-04-24T17:24:47;5.57;;;2.30;;
60999;SDS011;46879;45.658;11.814;2023-04-24T17:29:47;2.17;;;1.80;;
60999;SDS011;46879;45.658;11.814;2023-04-24T17:34:48;2.75;;;1.63;;
60999;SDS011;46879;45.658;11.814;2023-04-24T17:39:49;2.78;;;2.08;;
60999;SDS011;46879;45.658;11.814;2023-04-24T17:44:49;1.95;;;1.75;;
60999;SDS011;46879;45.658;11.814;2023-04-24T17:49:50;4.47;;;1.77;;
60999;SDS011;46879;45.658;11.814;2023-04-24T17:54:51;2.35;;;1.80;;
60999;SDS011;46879;45.658;11.814;2023-04-24T17:59:52;3.83;;;1.50;;
60999;SDS011;46879;45.658;11.814;2023-04-24T18:04:52;2.55;;;1.67;;
60999;SDS011;46879;45.658;11.814;2023-04-24T18:09:53;1.98;;;1.55;;
60999;SDS011;46879;45.658;11.814;2023-04-24T18:14:54;4.25;;;1.52;;
60999;SDS011;46879;45.658;11.814;2023-04-24T18:19:55;6.13;;;1.65;;
60999;SDS011;46879;45.658;11.814;2023-04-24T18:24:55;4.40;;;1.88;;
60999;SDS011;46879;45.658;11.814;2023-04-24T18:29:56;3.63;;;1.55;;
60999;SDS011;46879;45.658;11.814;2023-04-24T18:34:58;6.38;;;1.67;;
60999;SDS011;46879;45.658;11.814;2023-04-24T18:39:58;4.20;;;1.45;;
60999;SDS011;46879;45.658;11.814;2023-04-24T18:44:59;4.10;;;1.77;;
60999;SDS011;46879;45.658;11.814;2023-04-24T18:50:01;5.53;;;1.55;;
60999;SDS011;46879;45.658;11.814;2023-04-24T18:55:03;7.28;;;1.80;;
60999;SDS011;46879;45.658;11.814;2023-04-24T19:00:05;3.53;;;1.42;;
60999;SDS011;46879;45.658;11.814;2023-04-24T19:05:07;4.80;;;1.40;;
60999;SDS011;46879;45.658;11.814;2023-04-24T19:10:09;3.88;;;1.45;;
60999;SDS011;46879;45.658;11.814;2023-04-24T19:15:10;3.58;;;1.55;;
60999;SDS011;46879;45.658;11.814;2023-04-24T19:20:11;2.58;;;1.52;;
60999;SDS011;46879;45.658;11.814;2023-04-24T19:25:12;4.45;;;1.50;;
60999;SDS011;46879;45.658;11.814;2023-04-24T19:30:13;2.67;;;1.40;;
60999;SDS011;46879;45.658;11.814;2023-04-24T19:35:14;11.02;;;2.00;;
60999;SDS011;46879;45.658;11.814;2023-04-24T19:40:14;16.10;;;2.03;;
60999;SDS011;46879;45.658;11.814;2023-04-24T19:45:15;13.85;;;1.77;;
60999;SDS011;46879;45.658;11.814;2023-04-24T19:50:15;8.10;;;1.90;;
60999;SDS011;46879;45.658;11.814;2023-04-24T19:55:16;8.40;;;1.73;;
60999;SDS011;46879;45.658;11.814;2023-04-24T20:00:17;5.07;;;1.73;;
60999;SDS011;46879;45.658;11.814;2023-04-24T20:05:17;2.63;;;1.70;;
60999;SDS011;46879;45.658;11.814;2023-04-24T20:10:18;4.10;;;1.52;;
60999;SDS011;46879;45.658;11.814;2023-04-24T20:15:19;11.15;;;1.95;;
60999;SDS011;46879;45.658;11.814;2023-04-24T20:20:19;3.13;;;1.42;;
60999;SDS011;46879;45.658;11.814;2023-04-24T20:25:21;2.85;;;1.50;;
60999;SDS011;46879;45.658;11.814;2023-04-24T20:30:24;7.57;;;1.98;;
60999;SDS011;46879;45.658;11.814;2023-04-24T20:35:25;7.47;;;1.80;;
60999;SDS011;46879;45.658;11.814;2023-04-24T20:40:26;2.20;;;1.67;;
60999;SDS011;46879;45.658;11.814;2023-04-24T20:45:28;8.13;;;1.45;;
60999;SDS011;46879;45.658;11.814;2023-04-24T20:50:29;4.03;;;1.38;;
60999;SDS011;46879;45.658;11.814;2023-04-24T20:55:31;4.82;;;1.33;;
60999;SDS011;46879;45.658;11.814;2023-04-24T21:00:32;3.97;;;1.17;;
60999;SDS011;46879;45.658;11.814;2023-04-24T21:05:33;5.93;;;1.80;;
60999;SDS011;46879;45.658;11.814;2023-04-24T21:10:33;2.13;;;1.38;;
60999;SDS011;46879;45.658;11.814;2023-04-24T21:15:34;7.47;;;1.73;;
60999;SDS011;46879;45.658;11.814;2023-04-24T21:20:35;14.20;;;1.92;;
60999;SDS011;46879;45.658;11.814;2023-04-24T21:25:35;6.82;;;1.50;;
60999;SDS011;46879;45.658;11.814;2023-04-24T21:30:36;5.82;;;1.77;;
60999;SDS011;46879;45.658;11.814;2023-04-24T21:35:37;7.45;;;1.33;;
60999;SDS011;46879;45.658;11.814;2023-04-24T21:40:38;3.25;;;1.55;;
60999;SDS011;46879;45.658;11.814;2023-04-24T21:45:39;6.63;;;1.55;;
60999;SDS011;46879;45.658;11.814;2023-04-24T21:50:40;5.07;;;1.52;;
60999;SDS011;46879;45.658;11.814;2023-04-24T21:55:40;4.70;;;1.40;;
60999;SDS011;46879;45.658;11.814;2023-04-24T22:00:41;7.82;;;1.50;;
60999;SDS011;46879;45.658;11.814;2023-04-24T22:05:42;1.98;;;1.25;;
60999;SDS011;46879;45.658;11.814;2023-04-24T22:10:42;7.55;;;1.52;;
60999;SDS011;46879;45.658;11.814;2023-04-24T22:15:43;6.95;;;1.38;;
60999;SDS011;46879;45.658;11.814;2023-04-24T22:20:44;3.53;;;1.50;;
60999;SDS011;46879;45.658;11.814;2023-04-24T22:25:45;4.38;;;1.48;;
60999;SDS011;46879;45.658;11.814;2023-04-24T22:30:46;3.22;;;1.40;;
60999;SDS011;46879;45.658;11.814;2023-04-24T22:35:46;1.40;;;1.30;;
60999;SDS011;46879;45.658;11.814;2023-04-24T22:46:07;4.05;;;1.60;;
60999;SDS011;46879;45.658;11.814;2023-04-24T22:51:08;2.85;;;1.30;;
60999;SDS011;46879;45.658;11.814;2023-04-24T22:56:09;6.05;;;1.70;;
60999;SDS011;46879;45.658;11.814;2023-04-24T23:01:10;5.05;;;1.67;;
60999;SDS011;46879;45.658;11.814;2023-04-24T23:06:11;7.97;;;1.52;;
60999;SDS011;46879;45.658;11.814;2023-04-24T23:11:12;3.05;;;1.40;;
60999;SDS011;46879;45.658;11.814;2023-04-24T23:16:12;2.00;;;1.40;;
60999;SDS011;46879;45.658;11.814;2023-04-24T23:21:13;3.88;;;1.77;;
60999;SDS011;46879;45.658;11.814;2023-04-24T23:26:14;4.15;;;1.40;;
60999;SDS011;46879;45.658;11.814;2023-04-24T23:31:14;1.42;;;1.33;;
60999;SDS011;46879;45.658;11.814;2023-04-24T23:36:15;4.00;;;1.38;;
60999;SDS011;46879;45.658;11.814;2023-04-24T23:41:19;1.60;;;1.20;;
60999;SDS011;46879;45.658;11.814;2023-04-24T23:46:20;3.92;;;1.20;;
60999;SDS011;46879;45.658;11.814;2023-04-24T23:51:21;3.28;;;1.42;;
60999;SDS011;46879;45.658;11.814;2023-04-24T23:56:22;3.53;;;1.30;;
